createdAt,value
2017-12-15T00:00:24.000Z,982.336
2017-12-15T00:10:20.000Z,982.37
2017-12-15T00:20:20.000Z,982.473
2017-12-15T00:30:20.000Z,982.532
2017-12-15T00:40:20.000Z,982.575
2017-12-15T00:50:20.000Z,982.5
2017-12-15T01:00:20.000Z,982.539
2017-12-15T01:10:20.000Z,982.56
2017-12-15T01:20:21.000Z,982.611
2017-12-15T01:30:20.000Z,982.69
2017-12-15T01:40:20.000Z,982.754
2017-12-15T01:50:20.000Z,982.835
2017-12-15T02:00:21.000Z,982.907
2017-12-15T02:10:21.000Z,983.047
2017-12-15T02:20:21.000Z,983.08
2017-12-15T02:30:21.000Z,983.17
2017-12-15T02:40:21.000Z,983.283
2017-12-15T02:50:21.000Z,983.441
2017-12-15T03:00:21.000Z,983.631
2017-12-15T03:10:21.000Z,983.789
2017-12-15T03:20:21.000Z,983.882
2017-12-15T03:30:21.000Z,983.968
2017-12-15T03:40:21.000Z,984.114
2017-12-15T03:50:21.000Z,984.174
2017-12-15T04:00:21.000Z,984.365
2017-12-15T04:10:21.000Z,984.444
2017-12-15T04:20:21.000Z,984.532
2017-12-15T04:30:21.000Z,984.548
2017-12-15T04:40:21.000Z,984.679
2017-12-15T04:50:21.000Z,984.874
2017-12-15T05:00:21.000Z,984.989
2017-12-15T05:10:21.000Z,984.951
2017-12-15T05:20:23.000Z,984.998
2017-12-15T05:30:21.000Z,985.107
2017-12-15T05:40:21.000Z,985.232
2017-12-15T05:50:21.000Z,985.232
2017-12-15T06:00:21.000Z,985.389
2017-12-15T06:10:21.000Z,985.54
2017-12-15T06:20:21.000Z,985.599
2017-12-15T06:30:21.000Z,985.708
2017-12-15T06:40:21.000Z,985.787
2017-12-15T06:50:21.000Z,985.874
2017-12-15T07:00:21.000Z,985.861
2017-12-15T07:10:21.000Z,985.935
2017-12-15T07:20:21.000Z,985.96
2017-12-15T07:30:21.000Z,986.009
2017-12-15T07:40:21.000Z,986.076
2017-12-15T07:50:21.000Z,986.178
2017-12-15T08:00:21.000Z,986.302
2017-12-15T08:10:21.000Z,986.246
2017-12-15T08:20:21.000Z,986.377
2017-12-15T08:30:21.000Z,986.529
2017-12-15T08:40:21.000Z,986.63
2017-12-15T08:50:21.000Z,986.821
2017-12-15T09:00:21.000Z,986.998
2017-12-15T09:10:21.000Z,987.062
2017-12-15T09:20:21.000Z,987.265
2017-12-15T09:30:21.000Z,987.37
2017-12-15T09:40:21.000Z,987.479
2017-12-15T09:50:21.000Z,987.568
2017-12-15T10:00:21.000Z,987.667
2017-12-15T10:10:21.000Z,987.756
2017-12-15T10:20:22.000Z,987.766
2017-12-15T10:30:22.000Z,987.674
2017-12-15T10:40:22.000Z,987.716
2017-12-15T10:50:22.000Z,987.709
2017-12-15T11:00:22.000Z,987.762
2017-12-15T11:10:22.000Z,987.757
2017-12-15T11:20:22.000Z,987.808
2017-12-15T11:30:22.000Z,987.83
2017-12-15T11:40:22.000Z,987.834
2017-12-15T11:50:22.000Z,987.82
2017-12-15T12:00:22.000Z,987.919
2017-12-15T12:10:22.000Z,987.965
2017-12-15T12:20:22.000Z,988.108
2017-12-15T12:30:22.000Z,988.196
2017-12-15T12:40:22.000Z,988.28
2017-12-15T12:50:22.000Z,988.316
2017-12-15T13:00:22.000Z,988.309
2017-12-15T13:10:22.000Z,988.42
2017-12-15T13:20:22.000Z,988.515
2017-12-15T13:30:22.000Z,988.631
2017-12-15T13:40:22.000Z,988.756
2017-12-15T13:50:22.000Z,988.863
2017-12-15T14:00:22.000Z,988.868
2017-12-15T14:10:22.000Z,988.916
2017-12-15T14:20:22.000Z,989.012
2017-12-15T14:30:22.000Z,989.135
2017-12-15T14:40:22.000Z,989.292
2017-12-15T14:50:22.000Z,989.515
2017-12-15T15:00:22.000Z,989.614
2017-12-15T15:10:22.000Z,989.658
2017-12-15T15:20:22.000Z,989.712
2017-12-15T15:30:22.000Z,989.777
2017-12-15T15:40:22.000Z,989.91
2017-12-15T15:50:22.000Z,990.065
2017-12-15T16:00:22.000Z,990.105
2017-12-15T16:10:22.000Z,990.19
2017-12-15T16:20:22.000Z,990.228
2017-12-15T16:30:26.000Z,990.341
2017-12-15T16:40:22.000Z,990.548
2017-12-15T16:50:22.000Z,990.658
2017-12-15T17:00:22.000Z,990.814
2017-12-15T17:10:22.000Z,990.956
2017-12-15T17:20:22.000Z,991.036
2017-12-15T17:30:22.000Z,991.137
2017-12-15T17:40:22.000Z,991.331
2017-12-15T17:50:22.000Z,991.378
2017-12-15T18:00:23.000Z,991.492
2017-12-15T18:10:23.000Z,991.598
2017-12-15T18:20:22.000Z,991.678
2017-12-15T18:30:22.000Z,991.903
2017-12-15T18:40:23.000Z,991.957
2017-12-15T18:50:23.000Z,992.068
2017-12-15T19:00:23.000Z,992.159
2017-12-15T19:10:23.000Z,992.337
2017-12-15T19:20:23.000Z,992.477
2017-12-15T19:30:23.000Z,992.645
2017-12-15T19:40:23.000Z,992.737
2017-12-15T19:50:23.000Z,992.844
2017-12-15T20:00:23.000Z,992.956
2017-12-15T20:10:23.000Z,993.051
2017-12-15T20:20:23.000Z,993.178
2017-12-15T20:30:23.000Z,993.32
2017-12-15T20:40:23.000Z,993.342
2017-12-15T20:50:23.000Z,993.413
2017-12-15T21:00:23.000Z,993.481
2017-12-15T21:10:23.000Z,993.413
2017-12-15T21:20:23.000Z,993.431
2017-12-15T21:30:23.000Z,993.458
2017-12-15T21:40:23.000Z,993.532
2017-12-15T21:50:23.000Z,993.712
2017-12-15T22:00:23.000Z,993.87
2017-12-15T22:10:23.000Z,994.118
2017-12-15T22:20:23.000Z,994.275
2017-12-15T22:30:23.000Z,994.331
2017-12-15T22:40:23.000Z,994.404
2017-12-15T22:50:23.000Z,994.515
2017-12-15T23:00:23.000Z,994.574
2017-12-15T23:10:23.000Z,994.702
2017-12-15T23:20:23.000Z,994.738
2017-12-15T23:30:23.000Z,994.79
2017-12-15T23:40:23.000Z,994.782
2017-12-15T23:50:23.000Z,994.885
